This is the latest recevied weather packets stored in our database for station/object N9EA. If no packets are shown the sender has not sent any weather packets the latest 10 day(s).
| Time | Temp. | Humidity | Pressure | Rain* | Wind** | Luminosity | Snow |
|---|---|---|---|---|---|---|---|
| 1778095338 | 13.89° C | 36% | 1015.1 hPa | 0 mm | - | 373 W/m² | - |
| 1778095035 | 14.44° C | 36% | 1015.1 hPa | 0 mm | - | 741 W/m² | - |
| 1778094731 | 14.44° C | 35% | 1015 hPa | 0 mm | - | 855 W/m² | - |
| 1778094429 | 13.89° C | 38% | 1015.2 hPa | 0 mm | - | 868 W/m² | - |
| 1778094124 | 13.89° C | 36% | 1015.1 hPa | 0 mm | - | 714 W/m² | - |
| 1778093822 | 13.33° C | 39% | 1015.3 hPa | 0 mm | - | 861 W/m² | - |
| 1778093518 | 13.89° C | 36% | 1015 hPa | 0 mm | - | 329 W/m² | - |
| 1778093211 | 13.89° C | 38% | 1015.4 hPa | 0 mm | - | 898 W/m² | - |
| 1778092908 | 13.89° C | 38% | 1015.4 hPa | 0 mm | - | 328 W/m² | - |
| 1778092604 | 13.33° C | 36% | 1015.2 hPa | 0 mm | - | 349 W/m² | - |
| 1778092300 | 12.78° C | 38% | 1015.1 hPa | 0 mm | - | 849 W/m² | - |
| 1778091998 | 14.44° C | 35% | 1015 hPa | 0 mm | - | 240 W/m² | - |
| 1778091694 | 14.44° C | 37% | 1015.2 hPa | 0 mm | - | 831 W/m² | - |
| 1778091393 | 14.44° C | 36% | 1015.3 hPa | 0 mm | - | 825 W/m² | - |
| 1778091089 | 13.89° C | 36% | 1015 hPa | 0 mm | - | 729 W/m² | - |
| 1778090786 | 13.89° C | 36% | 1015.1 hPa | 0 mm | - | 700 W/m² | - |
| 1778090483 | 13.89° C | 39% | 1015.3 hPa | 0 mm | - | 823 W/m² | - |
| 1778090179 | 12.78° C | 36% | 1015.1 hPa | 0 mm | - | 831 W/m² | - |
| 1778089875 | 12.78° C | 37% | 1015.3 hPa | 0 mm | - | 570 W/m² | - |
| 1778089574 | 13.89° C | 39% | 1015.4 hPa | 0 mm | - | 584 W/m² | - |
| 1778089270 | 14.44° C | 35% | 1014.9 hPa | 0 mm | - | 498 W/m² | - |
| 1778088968 | 13.89° C | 38% | 1015.1 hPa | 0 mm | - | 889 W/m² | - |
| 1778088664 | 13.89° C | 37% | 1015.3 hPa | 0 mm | - | 906 W/m² | - |
| 1778088362 | 13.33° C | 38% | 1015.4 hPa | 0 mm | - | 865 W/m² | - |
| 1778088058 | 12.78° C | 42% | 1015.2 hPa | 0 mm | - | 863 W/m² | - |
* Rain latest hour (hover to see other rain measurements)
** Current wind speed in m/s (hover to see current wind gust speed)